Time;durP1;ratioP1;P1;durP2;ratioP2;P2;SDS_P1;SDS_P2;PMS_P1;PMS_P2;Temp;Humidity;BMP_temperature;BMP_pressure;BME280_temperature;BME280_humidity;BME280_pressure;Samples;Min_cycle;Max_cycle;Signal;HPM_P1;HPM_P2
2022/05/30 00:01:47;;;;;;;6.63;6.32;;;;;;;14.96;100.00;100210.47;5018074;28;20066;-60
2022/05/30 00:04:13;;;;;;;6.68;6.38;;;;;;;15.09;100.00;100211.25;5035019;28;20076;-60
2022/05/30 00:06:39;;;;;;;6.68;6.38;;;;;;;15.01;100.00;100205.31;5033889;28;20029;-62
2022/05/30 00:09:04;;;;;;;6.57;6.28;;;;;;;14.99;100.00;100194.84;5034478;28;20094;-62
2022/05/30 00:11:30;;;;;;;6.70;6.40;;;;;;;14.97;100.00;100198.75;5034257;28;20029;-61
2022/05/30 00:13:56;;;;;;;6.90;6.60;;;;;;;14.90;100.00;100196.91;5034299;28;20021;-60
2022/05/30 00:16:23;;;;;;;6.75;6.45;;;;;;;14.94;100.00;100213.34;5034322;28;20071;-62
2022/05/30 00:18:49;;;;;;;7.05;6.75;;;;;;;14.92;100.00;100210.09;5033555;28;20037;-61
2022/05/30 00:21:22;;;;;;;6.50;6.20;;;;;;;14.90;100.00;100201.44;5034133;28;20095;-62
2022/05/30 00:23:48;;;;;;;6.82;6.53;;;;;;;14.82;100.00;100202.50;5034063;28;20017;-61
2022/05/30 00:26:15;;;;;;;6.60;6.30;;;;;;;14.90;100.00;100206.78;5034246;28;20080;-61
2022/05/30 00:28:40;;;;;;;6.70;6.40;;;;;;;14.85;100.00;100207.44;5027557;28;20056;-61
2022/05/30 00:31:12;;;;;;;6.82;6.53;;;;;;;14.86;100.00;100195.72;5027949;28;20021;-62
2022/05/30 00:33:38;;;;;;;6.90;6.60;;;;;;;14.76;100.00;100213.19;5033942;28;20026;-61
2022/05/30 00:36:04;;;;;;;6.82;6.53;;;;;;;14.93;100.00;100211.72;5042193;28;20111;-61
2022/05/30 00:38:29;;;;;;;6.40;6.10;;;;;;;14.94;100.00;100213.34;5037668;28;20116;-60
2022/05/30 00:40:56;;;;;;;6.60;6.30;;;;;;;14.84;100.00;100232.50;5034022;28;20057;-62
2022/05/30 00:43:29;;;;;;;6.50;6.20;;;;;;;14.93;100.00;100249.94;5025449;28;20037;-59
2022/05/30 00:45:56;;;;;;;6.88;6.57;;;;;;;15.00;100.00;100276.63;5022466;28;20105;-60
2022/05/30 00:48:30;;;;;;;6.65;6.35;;;;;;;14.98;100.00;100276.00;5033768;28;20032;-62
2022/05/30 00:51:04;;;;;;;6.75;6.45;;;;;;;15.09;100.00;100280.69;5031502;28;20722;-61
2022/05/30 00:53:31;;;;;;;6.60;6.30;;;;;;;15.13;100.00;100289.97;5036396;28;20017;-60
2022/05/30 00:55:58;;;;;;;6.60;6.30;;;;;;;15.25;100.00;100283.94;5033694;28;20037;-61
2022/05/30 00:58:27;;;;;;;6.90;6.60;;;;;;;15.24;100.00;100263.59;5027209;28;20029;-62
2022/05/30 01:00:52;;;;;;;6.63;6.32;;;;;;;15.28;100.00;100254.13;5032162;28;20025;-62
2022/05/30 01:08:46;;;;;;;6.93;6.63;;;;;;;15.32;100.00;100276.72;5033603;28;20534;-61
2022/05/30 01:11:12;;;;;;;6.80;6.50;;;;;;;15.30;100.00;100273.44;5033152;28;20357;-61
2022/05/30 01:13:38;;;;;;;6.60;6.30;;;;;;;14.93;100.00;100273.16;5020747;28;20374;-61
2022/05/30 01:16:05;;;;;;;6.60;6.30;;;;;;;14.89;100.00;100248.69;5033122;28;20083;-62
2022/05/30 01:18:55;;;;;;;6.90;6.60;;;;;;;14.76;100.00;100243.41;5033202;28;20087;-61
2022/05/30 01:21:42;;;;;;;6.50;6.20;;;;;;;14.80;100.00;100268.66;5033006;28;20032;-61
2022/05/30 01:24:37;;;;;;;6.80;6.50;;;;;;;14.86;100.00;100281.19;5032363;28;20040;-61
2022/05/30 01:27:27;;;;;;;6.68;6.38;;;;;;;15.03;100.00;100283.41;5023006;28;20049;-60
2022/05/30 01:30:06;;;;;;;6.75;6.45;;;;;;;15.17;100.00;100301.03;5031820;28;20507;-61
2022/05/30 01:32:32;;;;;;;6.68;6.38;;;;;;;15.17;100.00;100307.19;5032210;28;20430;-61
2022/05/30 01:34:57;;;;;;;6.53;6.22;;;;;;;15.26;100.00;100301.63;5036036;28;20151;-60
2022/05/30 01:37:24;;;;;;;6.70;6.40;;;;;;;15.18;100.00;100274.09;5020311;28;20041;-61
2022/05/30 01:39:50;;;;;;;6.68;6.38;;;;;;;14.98;100.00;100243.94;5032797;28;20044;-61
2022/05/30 01:42:16;;;;;;;6.90;6.60;;;;;;;15.07;100.00;100240.03;5032428;28;20037;-61
2022/05/30 01:44:41;;;;;;;6.45;6.15;;;;;;;15.04;100.00;100229.75;5035823;28;20045;-61
2022/05/30 01:47:07;;;;;;;6.90;6.60;;;;;;;15.06;100.00;100249.09;5024278;28;20096;-61
2022/05/30 01:49:33;;;;;;;6.60;6.30;;;;;;;15.00;100.00;100247.25;5027519;28;20039;-63
2022/05/30 01:51:58;;;;;;;6.65;6.35;;;;;;;14.87;100.00;100224.06;5032623;28;20053;-60
2022/05/30 01:54:24;;;;;;;7.00;6.70;;;;;;;15.03;100.00;100227.28;5032407;28;20026;-62
2022/05/30 01:56:50;;;;;;;6.80;6.50;;;;;;;15.04;100.00;100223.59;5032052;28;20029;-60
2022/05/30 01:59:16;;;;;;;6.70;6.40;;;;;;;14.98;100.00;100230.59;5031118;28;20044;-61
2022/05/30 02:01:44;;;;;;;6.85;6.55;;;;;;;14.76;100.00;100219.38;5036578;28;20071;-61
2022/05/30 02:04:10;;;;;;;6.88;6.57;;;;;;;14.72;100.00;100220.00;5037252;28;20061;-61
2022/05/30 02:06:36;;;;;;;6.60;6.30;;;;;;;14.60;100.00;100214.47;5027313;28;20137;-60
2022/05/30 02:09:02;;;;;;;6.85;6.55;;;;;;;14.55;100.00;100184.94;5023554;28;20021;-61
2022/05/30 02:11:28;;;;;;;7.10;6.80;;;;;;;14.51;100.00;100200.53;5028332;28;20485;-61
2022/05/30 02:13:53;;;;;;;6.90;6.60;;;;;;;14.46;100.00;100218.19;5031923;28;20037;-61
2022/05/30 02:19:04;;;;;;;;;;;;;;;14.39;100.00;100164.78;5035699;28;20029;-61
2022/05/30 02:21:34;;;;;;;6.80;6.50;;;;;;;14.28;100.00;100110.22;5031492;28;19913;-61
2022/05/30 02:24:02;;;;;;;7.03;6.72;;;;;;;14.28;100.00;100112.06;5030751;28;20025;-61
2022/05/30 02:26:27;;;;;;;7.05;6.75;;;;;;;14.29;100.00;100082.50;5031616;28;20117;-61
2022/05/30 02:28:53;;;;;;;7.07;6.78;;;;;;;14.20;100.00;100067.75;5031984;28;20064;-61
2022/05/30 02:31:19;;;;;;;6.75;6.45;;;;;;;14.20;100.00;100051.75;5031908;28;20041;-61
2022/05/30 02:36:49;;;;;;;6.88;6.57;;;;;;;14.02;100.00;100083.59;4964721;28;20538;-61
2022/05/30 02:39:18;;;;;;;6.70;6.40;;;;;;;14.07;100.00;100070.47;4961052;28;20031;-61
2022/05/30 02:41:47;;;;;;;6.85;6.55;;;;;;;14.17;100.00;100083.34;5000633;28;20500;-61
2022/05/30 02:44:14;;;;;;;6.82;6.53;;;;;;;14.12;100.00;100113.34;5031797;28;20407;-61
2022/05/30 02:46:40;;;;;;;6.75;6.45;;;;;;;14.16;100.00;100093.19;5025879;28;20444;-61
2022/05/30 02:49:06;;;;;;;6.75;6.45;;;;;;;14.19;100.00;100100.00;5024400;28;20164;-60
2022/05/30 02:51:32;;;;;;;6.97;6.68;;;;;;;14.13;100.00;100079.47;5031429;28;20112;-60
2022/05/30 02:53:57;;;;;;;6.88;6.57;;;;;;;14.16;100.00;100101.22;5032472;28;20099;-61
2022/05/30 02:56:23;;;;;;;7.03;6.72;;;;;;;14.20;100.00;100088.28;5018184;28;21159;-61
2022/05/30 02:58:49;;;;;;;6.93;6.63;;;;;;;14.33;100.00;100077.59;5031244;28;20040;-61
2022/05/30 03:01:15;;;;;;;6.78;6.47;;;;;;;14.31;100.00;100083.09;5026051;28;20025;-61
2022/05/30 03:03:41;;;;;;;7.07;6.78;;;;;;;14.34;100.00;100093.38;5031414;28;20473;-61
2022/05/30 03:06:07;;;;;;;7.10;6.80;;;;;;;14.34;100.00;100081.88;5030539;28;20033;-62
2022/05/30 03:08:32;;;;;;;6.82;6.53;;;;;;;14.34;100.00;100060.53;5031372;28;20542;-62
2022/05/30 03:10:58;;;;;;;6.90;6.60;;;;;;;14.32;100.00;100083.94;5033683;28;20076;-62
2022/05/30 03:13:23;;;;;;;7.40;7.10;;;;;;;14.29;100.00;100055.81;5035158;28;20040;-61
2022/05/30 03:15:49;;;;;;;6.95;6.65;;;;;;;14.35;100.00;100048.84;5034136;28;20033;-62
2022/05/30 03:18:14;;;;;;;7.00;6.70;;;;;;;14.40;100.00;100057.03;5035129;28;20362;-60
2022/05/30 03:20:40;;;;;;;7.25;6.95;;;;;;;14.41;100.00;100073.88;5035207;28;20021;-62
2022/05/30 03:23:06;;;;;;;6.80;6.50;;;;;;;14.47;100.00;100071.22;5035105;28;20033;-61
2022/05/30 03:25:32;;;;;;;7.03;6.72;;;;;;;14.41;100.00;100053.34;5035138;28;20018;-60
2022/05/30 03:27:58;;;;;;;7.40;7.10;;;;;;;14.41;100.00;100064.00;5035766;28;20036;-60
2022/05/30 03:30:24;;;;;;;7.30;7.00;;;;;;;14.55;100.00;100068.28;5035160;28;20112;-61
2022/05/30 03:32:50;;;;;;;6.80;6.50;;;;;;;14.63;100.00;100070.72;5034928;28;20485;-61
2022/05/30 03:35:16;;;;;;;7.07;6.78;;;;;;;14.58;100.00;100086.53;5034843;28;20021;-61
2022/05/30 03:37:44;;;;;;;6.90;6.60;;;;;;;14.70;100.00;100088.56;5034857;28;20083;-61
2022/05/30 03:40:13;;;;;;;7.10;6.80;;;;;;;14.59;100.00;100095.38;5034856;28;20037;-60
2022/05/30 03:42:38;;;;;;;7.15;6.85;;;;;;;14.58;100.00;100091.88;5032545;28;20033;-61
2022/05/30 03:45:06;;;;;;;6.90;6.60;;;;;;;14.74;100.00;100087.09;5033194;28;20060;-62
2022/05/30 03:47:40;;;;;;;6.88;6.57;;;;;;;14.83;100.00;100083.13;5034055;28;20164;-62
2022/05/30 03:50:07;;;;;;;6.95;6.65;;;;;;;14.77;100.00;100074.16;5034727;28;20052;-61
2022/05/30 03:52:32;;;;;;;7.13;6.82;;;;;;;14.74;100.00;100060.41;5034727;28;20032;-61
2022/05/30 03:54:58;;;;;;;7.10;6.80;;;;;;;14.70;100.00;100051.19;5034826;28;20017;-61
2022/05/30 03:57:23;;;;;;;7.03;6.72;;;;;;;14.78;100.00;100056.28;5035945;28;20036;-61
2022/05/30 03:59:49;;;;;;;7.05;6.75;;;;;;;14.80;100.00;100044.34;5036952;28;20027;-60
2022/05/30 04:02:14;;;;;;;7.10;6.80;;;;;;;14.79;100.00;100041.88;5030621;28;20179;-60
2022/05/30 04:04:40;;;;;;;6.95;6.65;;;;;;;14.76;100.00;100036.97;5032774;28;20386;-61
2022/05/30 04:07:06;;;;;;;6.95;6.65;;;;;;;14.65;100.00;100031.28;5034303;28;20037;-61
2022/05/30 04:09:31;;;;;;;6.95;6.65;;;;;;;14.68;100.00;100018.53;5034228;28;20026;-60
2022/05/30 04:11:56;;;;;;;7.50;7.20;;;;;;;14.63;100.00;100028.00;5027911;28;20037;-61
2022/05/30 04:14:22;;;;;;;6.93;6.63;;;;;;;14.56;100.00;100005.88;5034029;28;20035;-60
2022/05/30 04:16:47;;;;;;;6.93;6.63;;;;;;;14.58;100.00;99986.97;5032979;28;20489;-61
2022/05/30 04:19:13;;;;;;;7.00;6.70;;;;;;;14.47;100.00;99974.28;5034080;28;20112;-61
2022/05/30 04:21:39;;;;;;;7.40;7.10;;;;;;;14.51;100.00;99999.53;5033335;28;20059;-61
2022/05/30 04:24:05;;;;;;;7.20;6.90;;;;;;;14.59;100.00;100050.00;5034003;28;20060;-60
2022/05/30 04:26:30;;;;;;;8.20;7.80;;;;;;;14.80;100.00;100065.72;5038425;28;20112;-60
2022/05/30 04:28:56;;;;;;;7.40;7.10;;;;;;;14.91;100.00;100099.75;5033839;28;20370;-60
2022/05/30 04:31:21;;;;;;;7.00;6.70;;;;;;;14.87;100.00;100111.88;5032720;28;20025;-60
2022/05/30 04:33:47;;;;;;;7.35;7.05;;;;;;;14.91;100.00;100134.47;5029614;28;20026;-60
2022/05/30 04:36:14;;;;;;;7.00;6.70;;;;;;;14.70;100.00;100123.28;5030690;28;20029;-60
2022/05/30 04:38:40;;;;;;;6.97;6.68;;;;;;;14.73;100.00;100102.31;5033572;28;20025;-60
2022/05/30 04:41:05;;;;;;;6.97;6.68;;;;;;;14.68;100.00;100096.75;5033254;28;20481;-59
2022/05/30 04:43:31;;;;;;;6.70;6.40;;;;;;;14.81;100.00;100118.06;5033839;28;20323;-59
2022/05/30 04:46:12;;;;;;;7.50;7.20;;;;;;;14.79;100.00;100116.66;5033206;28;20502;-61
2022/05/30 04:48:38;;;;;;;6.78;6.47;;;;;;;14.82;100.00;100102.88;5033495;28;20029;-61
2022/05/30 04:51:04;;;;;;;7.40;7.10;;;;;;;14.65;100.00;100097.19;5030740;28;20053;-60
2022/05/30 04:53:31;;;;;;;7.20;6.90;;;;;;;14.61;100.00;100101.31;5036934;28;20123;-60
2022/05/30 04:55:57;;;;;;;7.53;7.22;;;;;;;14.58;100.00;100112.41;5033288;28;20037;-60
2022/05/30 04:58:22;;;;;;;6.90;6.60;;;;;;;14.65;100.00;100111.38;5028442;28;20018;-61
2022/05/30 05:00:48;;;;;;;7.60;7.30;;;;;;;14.79;100.00;100114.00;5031686;28;20025;-62
2022/05/30 05:03:13;;;;;;;7.20;6.90;;;;;;;14.81;100.00;100110.06;5031675;28;20109;-59
2022/05/30 05:05:39;;;;;;;6.82;6.53;;;;;;;14.91;100.00;100109.63;5033004;28;20076;-60
2022/05/30 05:08:26;;;;;;;7.25;6.95;;;;;;;14.89;100.00;100107.16;5032990;28;20017;-60
2022/05/30 05:11:13;;;;;;;7.60;7.30;;;;;;;14.99;100.00;100101.38;5027597;28;20029;-59
2022/05/30 05:13:40;;;;;;;7.25;6.95;;;;;;;15.07;100.00;100108.31;5036275;28;20041;-62
2022/05/30 05:16:06;;;;;;;8.85;8.45;;;;;;;14.86;100.00;100096.91;5030244;28;20040;-65
2022/05/30 05:18:32;;;;;;;8.73;8.32;;;;;;;14.84;100.00;100103.50;5019840;28;20040;-64
2022/05/30 05:20:57;;;;;;;7.95;7.55;;;;;;;14.81;100.00;100110.06;5030612;28;20033;-63
2022/05/30 05:23:23;;;;;;;8.20;7.80;;;;;;;14.85;100.00;100132.66;5035942;28;20065;-64
2022/05/30 05:25:48;;;;;;;8.15;7.75;;;;;;;14.89;100.00;100165.09;5030971;28;20440;-63
2022/05/30 05:28:14;;;;;;;7.88;7.50;;;;;;;14.85;100.00;100161.22;5022496;28;20029;-63
2022/05/30 05:30:41;;;;;;;7.60;7.30;;;;;;;14.98;100.00;100145.09;5030406;28;20029;-63
2022/05/30 05:33:07;;;;;;;7.30;7.00;;;;;;;15.08;100.00;100193.56;5024514;28;20033;-64
2022/05/30 05:35:33;;;;;;;8.13;7.72;;;;;;;14.99;100.00;100172.66;5026906;28;20652;-63
2022/05/30 05:38:00;;;;;;;8.05;7.65;;;;;;;14.93;100.00;100174.31;5028420;28;20029;-65
2022/05/30 05:40:28;;;;;;;8.02;7.63;;;;;;;15.06;100.00;100173.47;5030974;28;20052;-63
2022/05/30 05:42:53;;;;;;;8.27;7.88;;;;;;;15.01;100.00;100168.75;5027327;28;20039;-62
2022/05/30 05:45:19;;;;;;;8.93;8.52;;;;;;;15.00;100.00;100166.28;5026659;28;20034;-64
2022/05/30 05:47:45;;;;;;;8.07;7.68;;;;;;;15.11;100.00;100182.44;5026551;28;20499;-64
2022/05/30 05:50:10;;;;;;;7.82;7.50;;;;;;;15.23;100.00;100179.13;5029767;28;20033;-62
2022/05/30 05:52:36;;;;;;;7.72;7.43;;;;;;;15.18;100.00;100169.06;5028387;28;20037;-63
2022/05/30 05:55:03;;;;;;;8.32;7.93;;;;;;;15.48;100.00;100158.59;5027520;28;20029;-63
2022/05/30 05:57:29;;;;;;;8.18;7.78;;;;;;;15.66;100.00;100158.75;5028347;28;20025;-63
2022/05/30 05:59:54;;;;;;;8.48;8.07;;;;;;;15.70;100.00;100151.09;5024110;28;20393;-63
2022/05/30 06:02:20;;;;;;;8.13;7.72;;;;;;;15.79;100.00;100148.97;5029348;28;20127;-63
2022/05/30 06:04:46;;;;;;;7.60;7.30;;;;;;;16.20;100.00;100161.78;5021891;28;20116;-63
2022/05/30 06:07:12;;;;;;;7.45;7.15;;;;;;;16.12;100.00;100151.38;5035699;28;20055;-63
2022/05/30 06:09:39;;;;;;;8.30;7.90;;;;;;;16.25;100.00;100162.78;5029777;28;20026;-62
2022/05/30 06:12:07;;;;;;;8.32;7.93;;;;;;;16.10;100.00;100178.34;5027180;28;20061;-63
2022/05/30 06:14:33;;;;;;;7.75;7.45;;;;;;;16.07;100.00;100191.34;5027981;28;20504;-64
2022/05/30 06:16:59;;;;;;;8.80;8.40;;;;;;;16.06;100.00;100158.41;5029902;28;20097;-63
2022/05/30 06:19:24;;;;;;;7.90;7.55;;;;;;;16.03;100.00;100148.97;5035849;28;20857;-63
2022/05/30 06:21:50;;;;;;;8.38;7.97;;;;;;;16.14;100.00;100160.78;5038815;28;20032;-64
2022/05/30 06:24:16;;;;;;;7.47;7.18;;;;;;;15.82;100.00;100162.72;5031082;28;20125;-63
2022/05/30 06:26:44;;;;;;;8.27;7.88;;;;;;;16.06;100.00;100162.94;5031897;28;20030;-61
2022/05/30 06:29:13;;;;;;;8.60;8.20;;;;;;;16.09;100.00;100167.88;5029008;28;20029;-63
2022/05/30 06:31:40;;;;;;;7.95;7.60;;;;;;;16.36;100.00;100171.09;5028103;28;20037;-62
2022/05/30 06:34:06;;;;;;;8.10;7.70;;;;;;;16.80;100.00;100170.03;5026985;28;20028;-63
2022/05/30 06:36:33;;;;;;;7.70;7.40;;;;;;;17.10;100.00;100173.56;5029046;28;20067;-65
2022/05/30 06:38:59;;;;;;;8.23;7.82;;;;;;;17.27;100.00;100181.81;5029698;28;20033;-63
2022/05/30 06:41:31;;;;;;;8.35;7.95;;;;;;;17.36;100.00;100193.84;5026696;28;20057;-63
2022/05/30 06:44:04;;;;;;;7.80;7.50;;;;;;;17.16;100.00;100198.66;5030798;28;20029;-62
2022/05/30 06:46:31;;;;;;;7.90;7.60;;;;;;;17.04;100.00;100197.78;5025885;28;20136;-64
2022/05/30 06:48:57;;;;;;;8.00;7.65;;;;;;;16.64;100.00;100192.84;5028202;28;20025;-63
2022/05/30 06:51:24;;;;;;;7.70;7.40;;;;;;;16.93;100.00;100198.53;5033495;28;20091;-62
2022/05/30 06:53:50;;;;;;;8.18;7.78;;;;;;;16.97;100.00;100203.25;5026219;28;20037;-62
2022/05/30 06:56:19;;;;;;;8.02;7.63;;;;;;;17.24;100.00;100197.53;5027690;28;20038;-63
2022/05/30 06:58:46;;;;;;;8.63;8.23;;;;;;;17.09;100.00;100187.19;5030812;28;20055;-63
2022/05/30 07:01:12;;;;;;;8.23;7.82;;;;;;;17.13;100.00;100201.81;5024813;28;20034;-63
2022/05/30 07:03:39;;;;;;;8.27;7.88;;;;;;;17.00;100.00;100196.59;5039746;28;20041;-63
2022/05/30 07:06:07;;;;;;;7.70;7.40;;;;;;;17.10;100.00;100197.69;5028307;28;20548;-63
2022/05/30 07:08:33;;;;;;;8.27;7.88;;;;;;;16.90;100.00;100199.81;5031202;28;20112;-64
2022/05/30 07:11:01;;;;;;;8.30;7.93;;;;;;;17.33;100.00;100197.00;5032010;28;20033;-63
2022/05/30 07:13:27;;;;;;;8.25;7.85;;;;;;;17.18;100.00;100190.38;5025496;28;20623;-63
2022/05/30 07:15:52;;;;;;;8.65;8.25;;;;;;;17.37;100.00;100186.63;5039221;28;20476;-63
2022/05/30 07:18:19;;;;;;;8.60;8.20;;;;;;;17.67;100.00;100195.47;5026128;28;20033;-62
2022/05/30 07:20:45;;;;;;;7.82;7.53;;;;;;;17.84;100.00;100201.00;5030161;28;20037;-62
2022/05/30 07:23:13;;;;;;;8.02;7.68;;;;;;;17.21;100.00;100196.13;5026778;28;20057;-64
2022/05/30 07:25:41;;;;;;;7.80;7.50;;;;;;;16.94;100.00;100200.16;5034984;28;20096;-64
2022/05/30 07:28:06;;;;;;;8.00;7.65;;;;;;;16.90;100.00;100201.69;5035498;28;20171;-63
2022/05/30 07:30:35;;;;;;;8.32;7.93;;;;;;;16.98;100.00;100212.09;5027658;28;20029;-63
2022/05/30 07:33:01;;;;;;;8.55;8.15;;;;;;;17.64;100.00;100220.09;5025090;28;20067;-63
2022/05/30 07:35:27;;;;;;;8.35;7.95;;;;;;;17.89;100.00;100214.56;5032052;28;20465;-64
2022/05/30 07:37:54;;;;;;;7.93;7.63;;;;;;;17.69;100.00;100220.19;5024663;28;20050;-64
2022/05/30 07:40:20;;;;;;;8.10;7.70;;;;;;;17.45;100.00;100210.44;5020676;28;20083;-64
2022/05/30 07:42:47;;;;;;;7.88;7.57;;;;;;;17.46;100.00;100200.53;5024360;28;20040;-63
2022/05/30 07:45:12;;;;;;;8.60;8.20;;;;;;;17.39;100.00;100201.44;5027619;28;20037;-64
2022/05/30 07:47:38;;;;;;;8.80;8.40;;;;;;;17.19;100.00;100192.03;5024354;28;20332;-65
2022/05/30 07:50:06;;;;;;;7.70;7.40;;;;;;;17.53;100.00;100203.94;5030520;28;20430;-63
2022/05/30 07:52:32;;;;;;;6.85;6.55;;;;;;;17.73;100.00;100195.63;5030622;28;20172;-64
2022/05/30 07:54:58;;;;;;;7.07;6.78;;;;;;;18.13;100.00;100201.19;5026837;28;20021;-64
2022/05/30 07:57:50;;;;;;;7.35;7.05;;;;;;;18.17;100.00;100197.00;5022792;28;20075;-64
2022/05/30 08:00:11;;;;;;;7.22;6.93;;;;;;;18.22;100.00;100200.63;5034086;28;20051;-65
2022/05/30 08:02:39;;;;;;;7.70;7.40;;;;;;;18.16;100.00;100206.91;5026447;28;20448;-65
2022/05/30 08:05:06;;;;;;;7.63;7.32;;;;;;;18.21;100.00;100204.38;5027093;28;20044;-67
2022/05/30 08:07:32;;;;;;;8.20;7.80;;;;;;;18.22;100.00;100205.19;5026706;28;20052;-67
2022/05/30 08:09:57;;;;;;;7.60;7.30;;;;;;;18.36;100.00;100198.53;5030831;28;20140;-67
2022/05/30 08:12:23;;;;;;;8.00;7.70;;;;;;;18.44;100.00;100198.19;5030387;28;20453;-68
2022/05/30 08:14:49;;;;;;;8.00;7.70;;;;;;;18.36;100.00;100206.59;5030567;28;20124;-67
2022/05/30 08:17:14;;;;;;;7.45;7.15;;;;;;;18.54;100.00;100200.25;5043799;28;20099;-67
2022/05/30 08:19:40;;;;;;;8.00;7.70;;;;;;;18.76;100.00;100195.13;5033733;28;20036;-68
2022/05/30 08:22:09;;;;;;;8.02;7.72;;;;;;;18.80;100.00;100198.16;5022993;28;20627;-68
2022/05/30 08:24:44;;;;;;;8.15;7.80;;;;;;;18.68;100.00;100192.81;5035765;28;20524;-67
2022/05/30 08:27:10;;;;;;;7.68;7.38;;;;;;;18.61;100.00;100189.41;5029511;28;20484;-67
2022/05/30 08:29:36;;;;;;;7.93;7.63;;;;;;;18.78;100.00;100184.94;5025940;28;20033;-68
2022/05/30 08:32:03;;;;;;;8.05;7.72;;;;;;;19.09;100.00;100193.63;5029443;28;20029;-68
2022/05/30 08:34:29;;;;;;;8.32;7.93;;;;;;;18.99;100.00;100192.38;5040175;28;20021;-67
2022/05/30 08:36:54;;;;;;;7.68;7.38;;;;;;;19.35;100.00;100189.56;5030467;28;20374;-67
2022/05/30 08:42:04;;;;;;;7.22;6.93;;;;;;;20.01;100.00;100185.38;5031210;28;20044;-65
2022/05/30 08:44:31;;;;;;;7.68;7.38;;;;;;;20.29;100.00;100192.53;5032135;28;20054;-64
2022/05/30 08:47:06;;;;;;;7.43;7.13;;;;;;;20.76;100.00;100190.25;5031290;28;20029;-65
2022/05/30 08:49:45;;;;;;;7.18;6.88;;;;;;;21.37;98.00;100199.13;5033092;28;20036;-65
2022/05/30 08:52:29;;;;;;;7.20;6.90;;;;;;;21.33;98.92;100203.38;5026794;28;20036;-64
2022/05/30 08:55:18;;;;;;;7.05;6.75;;;;;;;20.56;100.00;100200.75;5019972;28;20021;-66
2022/05/30 08:57:55;;;;;;;7.20;6.90;;;;;;;20.95;100.00;100202.38;5038910;28;20078;-65
2022/05/30 09:00:28;;;;;;;7.30;7.00;;;;;;;21.46;97.73;100202.19;5018625;28;20030;-65
2022/05/30 09:03:05;;;;;;;7.82;7.53;;;;;;;20.91;99.43;100197.72;5041098;28;20025;-65
2022/05/30 09:05:41;;;;;;;7.53;7.22;;;;;;;22.14;91.74;100197.94;5035377;28;20036;-65
2022/05/30 09:08:10;;;;;;;7.40;7.10;;;;;;;22.76;89.90;100193.72;5032936;28;20021;-65
2022/05/30 09:10:57;;;;;;;7.35;7.05;;;;;;;24.11;80.82;100209.78;5032898;28;20458;-65
2022/05/30 09:13:40;;;;;;;7.40;7.10;;;;;;;23.06;84.93;100202.00;5032882;28;20519;-64
2022/05/30 09:16:44;;;;;;;7.30;7.00;;;;;;;22.49;87.93;100204.66;5030251;28;20029;-65
2022/05/30 09:19:12;;;;;;;6.97;6.68;;;;;;;23.29;83.33;100197.22;5044974;28;20460;-65
2022/05/30 09:21:39;;;;;;;7.47;7.18;;;;;;;22.83;84.57;100203.22;5032701;28;20017;-65
2022/05/30 09:24:05;;;;;;;7.38;7.07;;;;;;;22.18;87.93;100207.16;5032611;28;20037;-65
2022/05/30 09:26:35;;;;;;;7.30;7.00;;;;;;;22.19;91.48;100216.91;5032753;28;20397;-65
2022/05/30 09:29:27;;;;;;;7.35;7.05;;;;;;;22.50;87.17;100230.63;5032251;28;20037;-65
2022/05/30 09:31:52;;;;;;;7.28;6.97;;;;;;;22.32;86.78;100224.53;5039894;28;20044;-67
2022/05/30 09:34:46;;;;;;;7.50;7.20;;;;;;;22.44;87.73;100232.47;5024745;28;20018;-65
2022/05/30 09:37:29;;;;;;;7.28;6.97;;;;;;;22.40;87.67;100228.69;5027134;28;20041;-65
2022/05/30 09:39:54;;;;;;;7.03;6.72;;;;;;;22.06;88.58;100233.50;5028942;28;20022;-65
2022/05/30 09:42:33;;;;;;;7.20;6.90;;;;;;;22.04;90.41;100230.25;5031815;28;20515;-73
2022/05/30 09:45:12;;;;;;;8.02;7.72;;;;;;;22.20;90.30;100234.75;5021068;28;20053;-64
2022/05/30 09:47:37;;;;;;;7.40;7.10;;;;;;;22.21;89.33;100228.25;5026650;28;20029;-65
2022/05/30 09:50:29;;;;;;;7.40;7.10;;;;;;;22.70;88.95;100238.88;5026511;28;20033;-65
2022/05/30 09:52:55;;;;;;;7.53;7.22;;;;;;;22.45;89.16;100231.38;5031078;28;20029;-65
2022/05/30 09:55:38;;;;;;;7.60;7.30;;;;;;;22.97;86.30;100236.03;5033530;28;20578;-65
2022/05/30 09:58:06;;;;;;;7.70;7.40;;;;;;;23.27;83.15;100246.16;5027623;28;20042;-64
2022/05/30 10:00:38;;;;;;;7.50;7.20;;;;;;;23.75;79.50;100237.94;5026939;28;20439;-64
2022/05/30 10:03:10;;;;;;;7.60;7.30;;;;;;;23.43;80.67;100239.75;5030446;28;20120;-66
2022/05/30 10:05:37;;;;;;;7.70;7.40;;;;;;;23.34;82.27;100232.38;5032643;28;20377;-65
2022/05/30 10:08:24;;;;;;;7.93;7.63;;;;;;;22.64;82.95;100228.28;5019165;28;20037;-64
2022/05/30 10:10:52;;;;;;;7.60;7.30;;;;;;;22.47;82.73;100245.44;5036482;28;20456;-65
2022/05/30 10:13:36;;;;;;;7.43;7.13;;;;;;;22.19;85.72;100243.91;5019269;28;20072;-65
2022/05/30 10:16:05;;;;;;;7.80;7.50;;;;;;;22.38;85.94;100244.31;5025230;28;20032;-66
2022/05/30 10:18:38;;;;;;;7.68;7.38;;;;;;;22.30;84.96;100251.00;5020718;28;20524;-63
2022/05/30 10:21:31;;;;;;;7.80;7.50;;;;;;;22.96;81.96;100255.25;5017605;28;20052;-65
2022/05/30 10:30:25;;;;;;;7.50;7.20;;;;;;;22.60;82.13;100238.78;5027920;28;20056;-65
2022/05/30 10:33:05;;;;;;;7.30;7.00;;;;;;;22.82;83.05;100242.16;5035826;28;20499;-65
2022/05/30 10:35:31;;;;;;;7.50;7.20;;;;;;;22.20;83.67;100250.94;5030102;28;20327;-65
2022/05/30 10:38:08;;;;;;;7.38;7.07;;;;;;;23.40;79.19;100247.56;5039019;28;20504;-67
2022/05/30 10:40:46;;;;;;;7.30;7.00;;;;;;;23.49;79.35;100247.88;5027203;28;20025;-65
2022/05/30 10:43:45;;;;;;;7.20;6.90;;;;;;;23.79;78.68;100245.25;5023330;28;20063;-65
2022/05/30 10:46:18;;;;;;;7.50;7.20;;;;;;;24.72;75.48;100239.53;5030657;28;20103;-65
2022/05/30 10:48:52;;;;;;;7.50;7.20;;;;;;;24.17;78.15;100243.13;5035690;28;20056;-65
2022/05/30 10:51:23;;;;;;;8.02;7.72;;;;;;;23.88;79.27;100242.84;5028758;28;20097;-65
2022/05/30 10:54:19;;;;;;;7.70;7.40;;;;;;;23.10;82.19;100232.03;5022808;28;20036;-66
2022/05/30 10:56:48;;;;;;;7.70;7.40;;;;;;;24.36;76.50;100243.41;5037956;28;20029;-66
2022/05/30 10:59:32;;;;;;;7.45;7.15;;;;;;;24.15;76.42;100237.13;5030939;28;20412;-67
2022/05/30 11:02:06;;;;;;;7.50;7.20;;;;;;;24.36;75.17;100232.56;5031894;28;20028;-66
2022/05/30 11:04:47;;;;;;;7.63;7.32;;;;;;;24.16;76.09;100226.00;5014460;28;20727;-67
2022/05/30 11:07:31;;;;;;;7.68;7.38;;;;;;;24.03;77.58;100242.03;5019491;28;20024;-66
2022/05/30 11:10:22;;;;;;;7.80;7.50;;;;;;;24.45;74.79;100226.28;5040355;28;20033;-67
2022/05/30 11:13:00;;;;;;;7.82;7.53;;;;;;;24.65;74.57;100232.78;5025145;28;20045;-66
2022/05/30 11:15:32;;;;;;;7.60;7.30;;;;;;;25.34;72.46;100229.28;5026098;28;20044;-67
2022/05/30 11:18:17;;;;;;;7.45;7.15;;;;;;;25.64;69.40;100228.28;5026637;28;20017;-65
2022/05/30 11:20:48;;;;;;;7.53;7.22;;;;;;;25.67;68.18;100225.00;5018569;28;20025;-66
2022/05/30 11:23:14;;;;;;;7.40;7.10;;;;;;;25.27;68.82;100223.34;5029271;28;20017;-66
2022/05/30 11:26:18;;;;;;;7.32;7.03;;;;;;;24.92;70.81;100225.09;5027445;28;20384;-66
2022/05/30 11:29:03;;;;;;;7.70;7.40;;;;;;;25.19;70.32;100210.34;5020581;28;20071;-66
2022/05/30 11:31:58;;;;;;;7.07;6.78;;;;;;;24.99;70.00;100212.03;5040277;28;20389;-66
2022/05/30 11:34:35;;;;;;;7.43;7.13;;;;;;;25.18;69.47;100208.72;5030865;28;20014;-66
2022/05/30 11:37:13;;;;;;;7.32;7.03;;;;;;;26.17;66.18;100210.22;5036800;28;20021;-65
2022/05/30 11:39:57;;;;;;;7.30;7.00;;;;;;;24.55;70.85;100208.41;5035289;28;20497;-65
2022/05/30 11:42:54;;;;;;;7.30;7.00;;;;;;;24.65;73.77;100202.94;5031525;28;20021;-65
2022/05/30 11:45:48;;;;;;;7.45;7.15;;;;;;;24.57;71.85;100206.22;5022656;28;20133;-67
2022/05/30 11:48:25;;;;;;;7.55;7.25;;;;;;;24.65;72.10;100201.03;5029794;28;20492;-66
2022/05/30 11:51:19;;;;;;;7.60;7.30;;;;;;;24.26;74.15;100203.53;5030594;28;20488;-66
2022/05/30 11:54:15;;;;;;;7.47;7.18;;;;;;;24.74;69.98;100202.09;5043101;28;20419;-67